CheckWX is a tool to help pilots better visualize weather data.  It is not intended as a substitute for an official pre-flight weather briefing.

21:03:14 UTC

KEAN METAR
Phifer Airfield Airport
Wheatland, Wyoming, USA
Current

28 mins ago

KEAN 232035Z AUTO 24017G23KT 10SM CLR 00/M12 A2990 RMK AO2 T00001119
Observed
Feb-23 @ 20:35 UTC
Wind
  • 240° at 17 KTS
  • Gusting to 23 KTS
Visibility
10 SM
Flight Rules
VFR
Cloud Levels
  • Clear skies
Temperature
C / 32°F
Dewpoint
-12°C / 10°F
Humidity
40%
Altimeter
29.9" Hg
Pressure
1012.52 hPa
Previous

48 mins ago

KEAN 232015Z AUTO 24018G25KT 10SM CLR 00/M12 A2990 RMK AO2 T10011117
Observed
Feb-23 @ 20:15 UTC
Wind
  • 240° at 18 KTS
  • Gusting to 25 KTS
Visibility
10 SM
Flight Rules
VFR
Cloud Levels
  • Clear skies
Temperature
-0°C / 32°F
Dewpoint
-12°C / 10°F
Humidity
40%
Altimeter
29.9" Hg
Pressure
1012.52 hPa
Previous

1 hour ago

KEAN 231950Z AUTO 24016G23KT 10SM CLR 00/M11 A2990 RMK AO2 T00001113
Observed
Feb-23 @ 19:50 UTC
Wind
  • 240° at 16 KTS
  • Gusting to 23 KTS
Visibility
10 SM
Flight Rules
VFR
Cloud Levels
  • Clear skies
Temperature
C / 32°F
Dewpoint
-11°C / 12°F
Humidity
44%
Altimeter
29.9" Hg
Pressure
1012.52 hPa